sensor_id;sensor_type;location;lat;lon;timestamp;temperature;humidity
17948;DHT22;9099;47.958;11.366;2023-04-01T00:01:16;7.90;99.90
17948;DHT22;9099;47.958;11.366;2023-04-01T00:03:43;7.90;99.90
17948;DHT22;9099;47.958;11.366;2023-04-01T00:06:12;7.80;99.90
17948;DHT22;9099;47.958;11.366;2023-04-01T00:08:39;7.80;99.90
17948;DHT22;9099;47.958;11.366;2023-04-01T00:11:06;7.70;99.90
17948;DHT22;9099;47.958;11.366;2023-04-01T00:13:33;7.70;99.90
17948;DHT22;9099;47.958;11.366;2023-04-01T00:16:02;7.70;99.90
17948;DHT22;9099;47.958;11.366;2023-04-01T00:18:29;7.70;99.90
17948;DHT22;9099;47.958;11.366;2023-04-01T00:20:56;7.70;99.90
17948;DHT22;9099;47.958;11.366;2023-04-01T00:23:23;7.70;99.90
17948;DHT22;9099;47.958;11.366;2023-04-01T00:25:50;7.70;99.90
17948;DHT22;9099;47.958;11.366;2023-04-01T00:28:18;7.70;99.90
17948;DHT22;9099;47.958;11.366;2023-04-01T00:30:46;7.70;99.90
17948;DHT22;9099;47.958;11.366;2023-04-01T00:33:15;7.70;99.90
17948;DHT22;9099;47.958;11.366;2023-04-01T00:35:42;7.70;99.90
17948;DHT22;9099;47.958;11.366;2023-04-01T00:38:09;7.70;99.90
17948;DHT22;9099;47.958;11.366;2023-04-01T00:40:38;7.70;99.90
17948;DHT22;9099;47.958;11.366;2023-04-01T00:43:11;7.70;99.90
17948;DHT22;9099;47.958;11.366;2023-04-01T00:45:39;7.70;99.90
17948;DHT22;9099;47.958;11.366;2023-04-01T00:48:10;7.70;99.90
17948;DHT22;9099;47.958;11.366;2023-04-01T00:50:39;7.70;99.90
17948;DHT22;9099;47.958;11.366;2023-04-01T00:53:07;7.80;99.90
17948;DHT22;9099;47.958;11.366;2023-04-01T00:55:38;7.80;99.90
17948;DHT22;9099;47.958;11.366;2023-04-01T00:58:11;7.80;99.90
17948;DHT22;9099;47.958;11.366;2023-04-01T01:00:40;7.90;99.90
17948;DHT22;9099;47.958;11.366;2023-04-01T01:03:07;7.90;99.90
17948;DHT22;9099;47.958;11.366;2023-04-01T01:05:52;8.00;99.90
17948;DHT22;9099;47.958;11.366;2023-04-01T01:08:28;8.00;99.90
17948;DHT22;9099;47.958;11.366;2023-04-01T01:10:57;8.00;99.90
17948;DHT22;9099;47.958;11.366;2023-04-01T01:13:28;8.10;99.90
17948;DHT22;9099;47.958;11.366;2023-04-01T01:16:01;8.10;99.90
17948;DHT22;9099;47.958;11.366;2023-04-01T01:18:35;8.10;99.90
17948;DHT22;9099;47.958;11.366;2023-04-01T01:21:30;8.10;99.90
17948;DHT22;9099;47.958;11.366;2023-04-01T01:26:53;8.10;99.90
17948;DHT22;9099;47.958;11.366;2023-04-01T01:29:41;8.10;99.90
17948;DHT22;9099;47.958;11.366;2023-04-01T01:32:16;8.10;99.90
17948;DHT22;9099;47.958;11.366;2023-04-01T01:34:50;8.10;99.90
17948;DHT22;9099;47.958;11.366;2023-04-01T01:37:23;8.10;99.90
17948;DHT22;9099;47.958;11.366;2023-04-01T01:39:54;8.10;99.90
17948;DHT22;9099;47.958;11.366;2023-04-01T01:42:23;8.10;99.90
17948;DHT22;9099;47.958;11.366;2023-04-01T01:44:52;8.10;99.90
17948;DHT22;9099;47.958;11.366;2023-04-01T01:47:21;8.00;99.90
17948;DHT22;9099;47.958;11.366;2023-04-01T01:49:50;8.10;99.90
17948;DHT22;9099;47.958;11.366;2023-04-01T01:52:17;8.10;99.90
17948;DHT22;9099;47.958;11.366;2023-04-01T01:54:50;8.10;99.90
17948;DHT22;9099;47.958;11.366;2023-04-01T01:57:20;8.10;99.90
17948;DHT22;9099;47.958;11.366;2023-04-01T01:59:52;8.10;99.90
17948;DHT22;9099;47.958;11.366;2023-04-01T02:02:20;8.10;99.90
17948;DHT22;9099;47.958;11.366;2023-04-01T02:04:49;8.20;99.90
17948;DHT22;9099;47.958;11.366;2023-04-01T02:07:19;8.10;99.90
17948;DHT22;9099;47.958;11.366;2023-04-01T02:09:49;8.10;99.90
17948;DHT22;9099;47.958;11.366;2023-04-01T02:12:17;8.10;99.90
17948;DHT22;9099;47.958;11.366;2023-04-01T02:14:49;8.00;99.90
17948;DHT22;9099;47.958;11.366;2023-04-01T02:17:19;8.00;99.90
17948;DHT22;9099;47.958;11.366;2023-04-01T02:19:49;8.00;99.90
17948;DHT22;9099;47.958;11.366;2023-04-01T02:22:19;8.00;99.90
17948;DHT22;9099;47.958;11.366;2023-04-01T02:24:50;8.00;99.90
17948;DHT22;9099;47.958;11.366;2023-04-01T02:27:20;8.00;99.90
17948;DHT22;9099;47.958;11.366;2023-04-01T02:29:47;8.00;99.90
17948;DHT22;9099;47.958;11.366;2023-04-01T02:32:14;7.90;99.90
17948;DHT22;9099;47.958;11.366;2023-04-01T02:34:43;7.90;99.90
17948;DHT22;9099;47.958;11.366;2023-04-01T02:37:11;8.00;99.90
17948;DHT22;9099;47.958;11.366;2023-04-01T02:39:38;7.90;99.90
17948;DHT22;9099;47.958;11.366;2023-04-01T02:42:06;7.90;99.90
17948;DHT22;9099;47.958;11.366;2023-04-01T02:44:33;7.90;99.90
17948;DHT22;9099;47.958;11.366;2023-04-01T02:47:00;7.90;99.90
17948;DHT22;9099;47.958;11.366;2023-04-01T02:49:27;7.90;99.90
17948;DHT22;9099;47.958;11.366;2023-04-01T02:51:54;7.90;99.90
17948;DHT22;9099;47.958;11.366;2023-04-01T02:54:21;7.90;99.90
17948;DHT22;9099;47.958;11.366;2023-04-01T02:56:47;7.90;99.90
17948;DHT22;9099;47.958;11.366;2023-04-01T02:59:16;7.80;99.90
17948;DHT22;9099;47.958;11.366;2023-04-01T03:01:43;7.90;99.90
17948;DHT22;9099;47.958;11.366;2023-04-01T03:04:10;7.90;99.90
17948;DHT22;9099;47.958;11.366;2023-04-01T03:06:36;7.90;99.90
17948;DHT22;9099;47.958;11.366;2023-04-01T03:09:03;7.90;99.90
17948;DHT22;9099;47.958;11.366;2023-04-01T03:11:30;7.80;99.90
17948;DHT22;9099;47.958;11.366;2023-04-01T03:13:57;7.80;99.90
17948;DHT22;9099;47.958;11.366;2023-04-01T03:16:25;7.70;99.90
17948;DHT22;9099;47.958;11.366;2023-04-01T03:18:52;7.70;99.90
17948;DHT22;9099;47.958;11.366;2023-04-01T03:21:22;7.70;99.90
17948;DHT22;9099;47.958;11.366;2023-04-01T03:23:49;7.60;99.90
17948;DHT22;9099;47.958;11.366;2023-04-01T03:26:16;7.60;99.90
17948;DHT22;9099;47.958;11.366;2023-04-01T03:28:44;7.60;99.90
17948;DHT22;9099;47.958;11.366;2023-04-01T03:31:11;7.50;99.90
17948;DHT22;9099;47.958;11.366;2023-04-01T03:33:40;7.50;99.90
17948;DHT22;9099;47.958;11.366;2023-04-01T03:36:07;7.50;99.90
17948;DHT22;9099;47.958;11.366;2023-04-01T03:38:34;7.50;99.90
17948;DHT22;9099;47.958;11.366;2023-04-01T03:41:01;7.50;99.90
17948;DHT22;9099;47.958;11.366;2023-04-01T03:43:28;7.40;99.90
17948;DHT22;9099;47.958;11.366;2023-04-01T03:45:55;7.40;99.90
17948;DHT22;9099;47.958;11.366;2023-04-01T03:48:23;7.40;99.90
17948;DHT22;9099;47.958;11.366;2023-04-01T03:50:52;7.40;99.90
17948;DHT22;9099;47.958;11.366;2023-04-01T03:53:19;7.40;99.90
17948;DHT22;9099;47.958;11.366;2023-04-01T03:55:46;7.40;99.90
17948;DHT22;9099;47.958;11.366;2023-04-01T03:58:13;7.40;99.90
17948;DHT22;9099;47.958;11.366;2023-04-01T04:00:40;7.50;99.90
17948;DHT22;9099;47.958;11.366;2023-04-01T04:03:07;7.40;99.90
17948;DHT22;9099;47.958;11.366;2023-04-01T04:05:33;7.40;99.90
17948;DHT22;9099;47.958;11.366;2023-04-01T04:08:02;7.40;99.90
17948;DHT22;9099;47.958;11.366;2023-04-01T04:10:29;7.40;99.90
17948;DHT22;9099;47.958;11.366;2023-04-01T04:12:56;7.40;99.90
17948;DHT22;9099;47.958;11.366;2023-04-01T04:15:23;7.50;99.90
17948;DHT22;9099;47.958;11.366;2023-04-01T04:17:50;7.50;99.90
17948;DHT22;9099;47.958;11.366;2023-04-01T04:20:17;7.60;99.90
17948;DHT22;9099;47.958;11.366;2023-04-01T04:22:43;7.50;99.90
17948;DHT22;9099;47.958;11.366;2023-04-01T04:25:12;7.60;99.90
17948;DHT22;9099;47.958;11.366;2023-04-01T04:27:38;7.60;99.90
17948;DHT22;9099;47.958;11.366;2023-04-01T04:30:07;7.60;99.90
17948;DHT22;9099;47.958;11.366;2023-04-01T04:32:34;7.60;99.90
17948;DHT22;9099;47.958;11.366;2023-04-01T04:35:01;7.60;99.90
17948;DHT22;9099;47.958;11.366;2023-04-01T04:37:28;7.70;99.90
17948;DHT22;9099;47.958;11.366;2023-04-01T04:39:55;7.70;99.90
17948;DHT22;9099;47.958;11.366;2023-04-01T04:42:23;7.70;99.90
17948;DHT22;9099;47.958;11.366;2023-04-01T04:44:50;7.80;99.90
17948;DHT22;9099;47.958;11.366;2023-04-01T04:47:17;7.80;99.90
17948;DHT22;9099;47.958;11.366;2023-04-01T04:49:43;7.80;99.90
17948;DHT22;9099;47.958;11.366;2023-04-01T04:52:10;7.80;99.90
17948;DHT22;9099;47.958;11.366;2023-04-01T04:54:37;7.80;99.90
17948;DHT22;9099;47.958;11.366;2023-04-01T04:57:04;7.90;99.90
17948;DHT22;9099;47.958;11.366;2023-04-01T04:59:32;7.90;99.90
17948;DHT22;9099;47.958;11.366;2023-04-01T05:01:59;7.90;99.90
17948;DHT22;9099;47.958;11.366;2023-04-01T05:04:26;7.90;99.90
17948;DHT22;9099;47.958;11.366;2023-04-01T05:06:53;7.80;99.90
17948;DHT22;9099;47.958;11.366;2023-04-01T05:09:19;7.80;99.90
17948;DHT22;9099;47.958;11.366;2023-04-01T05:11:46;7.80;99.90
17948;DHT22;9099;47.958;11.366;2023-04-01T05:14:14;7.80;99.90
17948;DHT22;9099;47.958;11.366;2023-04-01T05:16:42;7.80;99.90
17948;DHT22;9099;47.958;11.366;2023-04-01T05:19:09;7.90;99.90
17948;DHT22;9099;47.958;11.366;2023-04-01T05:21:36;7.90;99.90
17948;DHT22;9099;47.958;11.366;2023-04-01T05:24:03;7.90;99.90
17948;DHT22;9099;47.958;11.366;2023-04-01T05:26:33;7.90;99.90
17948;DHT22;9099;47.958;11.366;2023-04-01T05:29:00;7.90;99.90
17948;DHT22;9099;47.958;11.366;2023-04-01T05:31:27;7.90;99.90
17948;DHT22;9099;47.958;11.366;2023-04-01T05:33:55;8.00;99.90
17948;DHT22;9099;47.958;11.366;2023-04-01T05:36:22;8.10;99.90
17948;DHT22;9099;47.958;11.366;2023-04-01T05:38:49;8.30;99.90
17948;DHT22;9099;47.958;11.366;2023-04-01T05:41:16;8.40;99.90
17948;DHT22;9099;47.958;11.366;2023-04-01T05:43:43;8.60;99.90
17948;DHT22;9099;47.958;11.366;2023-04-01T05:46:10;8.70;99.90
17948;DHT22;9099;47.958;11.366;2023-04-01T05:48:37;8.70;99.90
17948;DHT22;9099;47.958;11.366;2023-04-01T05:51:05;8.70;99.90
17948;DHT22;9099;47.958;11.366;2023-04-01T05:53:32;8.80;99.90
17948;DHT22;9099;47.958;11.366;2023-04-01T05:56:02;8.80;99.90
17948;DHT22;9099;47.958;11.366;2023-04-01T05:58:29;8.80;99.90
17948;DHT22;9099;47.958;11.366;2023-04-01T06:01:01;8.70;99.90
17948;DHT22;9099;47.958;11.366;2023-04-01T06:03:28;8.70;99.90
17948;DHT22;9099;47.958;11.366;2023-04-01T06:05:55;8.60;99.90
17948;DHT22;9099;47.958;11.366;2023-04-01T06:08:24;8.60;99.90
17948;DHT22;9099;47.958;11.366;2023-04-01T06:11:04;8.60;99.90
17948;DHT22;9099;47.958;11.366;2023-04-01T06:13:40;8.50;99.90
17948;DHT22;9099;47.958;11.366;2023-04-01T06:16:18;8.60;99.90
17948;DHT22;9099;47.958;11.366;2023-04-01T06:19:02;8.70;99.90
17948;DHT22;9099;47.958;11.366;2023-04-01T06:24:56;8.70;99.90
17948;DHT22;9099;47.958;11.366;2023-04-01T06:27:41;8.90;99.90
17948;DHT22;9099;47.958;11.366;2023-04-01T06:33:35;9.60;99.90
17948;DHT22;9099;47.958;11.366;2023-04-01T06:36:23;10.20;99.90
17948;DHT22;9099;47.958;11.366;2023-04-01T06:42:06;11.60;99.90
17948;DHT22;9099;47.958;11.366;2023-04-01T06:44:43;12.30;99.90
17948;DHT22;9099;47.958;11.366;2023-04-01T06:47:27;12.60;99.90
17948;DHT22;9099;47.958;11.366;2023-04-01T06:50:01;12.70;99.90
17948;DHT22;9099;47.958;11.366;2023-04-01T06:52:35;12.80;99.90
17948;DHT22;9099;47.958;11.366;2023-04-01T06:55:25;12.90;99.90
17948;DHT22;9099;47.958;11.366;2023-04-01T06:57:57;12.80;99.90
17948;DHT22;9099;47.958;11.366;2023-04-01T07:00:29;12.40;99.90
17948;DHT22;9099;47.958;11.366;2023-04-01T07:03:05;11.90;99.90
17948;DHT22;9099;47.958;11.366;2023-04-01T07:05:34;11.30;99.90
17948;DHT22;9099;47.958;11.366;2023-04-01T07:08:03;11.00;99.90
17948;DHT22;9099;47.958;11.366;2023-04-01T07:10:35;11.10;99.90
17948;DHT22;9099;47.958;11.366;2023-04-01T07:13:14;10.90;99.90
17948;DHT22;9099;47.958;11.366;2023-04-01T07:15:43;10.70;99.90
17948;DHT22;9099;47.958;11.366;2023-04-01T07:18:15;10.90;99.90
17948;DHT22;9099;47.958;11.366;2023-04-01T07:20:43;11.20;99.90
17948;DHT22;9099;47.958;11.366;2023-04-01T07:23:16;11.30;99.90
17948;DHT22;9099;47.958;11.366;2023-04-01T07:25:52;11.50;99.90
17948;DHT22;9099;47.958;11.366;2023-04-01T07:28:21;11.80;99.90
17948;DHT22;9099;47.958;11.366;2023-04-01T07:30:57;12.20;99.90
17948;DHT22;9099;47.958;11.366;2023-04-01T07:33:30;12.10;99.90
17948;DHT22;9099;47.958;11.366;2023-04-01T07:36:05;12.20;99.90
17948;DHT22;9099;47.958;11.366;2023-04-01T07:38:39;12.20;99.90
17948;DHT22;9099;47.958;11.366;2023-04-01T07:41:11;12.30;99.90
17948;DHT22;9099;47.958;11.366;2023-04-01T07:43:52;12.10;99.90
17948;DHT22;9099;47.958;11.366;2023-04-01T07:46:30;11.80;99.90
17948;DHT22;9099;47.958;11.366;2023-04-01T07:49:04;12.00;99.90
17948;DHT22;9099;47.958;11.366;2023-04-01T07:51:38;12.90;99.90
17948;DHT22;9099;47.958;11.366;2023-04-01T07:54:13;13.20;99.90
17948;DHT22;9099;47.958;11.366;2023-04-01T07:56:49;13.90;99.90
17948;DHT22;9099;47.958;11.366;2023-04-01T07:59:24;14.00;99.90
17948;DHT22;9099;47.958;11.366;2023-04-01T08:02:02;13.60;99.90
17948;DHT22;9099;47.958;11.366;2023-04-01T08:04:44;13.20;99.90
17948;DHT22;9099;47.958;11.366;2023-04-01T08:07:18;12.80;99.90
17948;DHT22;9099;47.958;11.366;2023-04-01T08:09:52;12.30;99.90
17948;DHT22;9099;47.958;11.366;2023-04-01T08:12:31;12.10;99.90
17948;DHT22;9099;47.958;11.366;2023-04-01T08:15:10;11.80;99.90
17948;DHT22;9099;47.958;11.366;2023-04-01T08:17:45;12.10;99.90
17948;DHT22;9099;47.958;11.366;2023-04-01T08:20:23;12.60;99.90
17948;DHT22;9099;47.958;11.366;2023-04-01T08:22:58;13.20;99.90
17948;DHT22;9099;47.958;11.366;2023-04-01T08:25:28;14.10;99.90
17948;DHT22;9099;47.958;11.366;2023-04-01T08:28:00;14.30;99.90
17948;DHT22;9099;47.958;11.366;2023-04-01T08:30:36;13.90;99.90
17948;DHT22;9099;47.958;11.366;2023-04-01T08:33:11;13.80;99.90
17948;DHT22;9099;47.958;11.366;2023-04-01T08:35:42;14.40;99.90
17948;DHT22;9099;47.958;11.366;2023-04-01T08:38:12;14.40;99.90
17948;DHT22;9099;47.958;11.366;2023-04-01T08:40:59;14.20;99.90
17948;DHT22;9099;47.958;11.366;2023-04-01T08:43:42;14.10;99.90
17948;DHT22;9099;47.958;11.366;2023-04-01T08:46:34;14.40;99.90
17948;DHT22;9099;47.958;11.366;2023-04-01T08:49:20;15.10;99.90
17948;DHT22;9099;47.958;11.366;2023-04-01T08:52:18;15.50;99.90
17948;DHT22;9099;47.958;11.366;2023-04-01T08:55:13;15.40;99.90
17948;DHT22;9099;47.958;11.366;2023-04-01T08:57:55;15.60;99.90
17948;DHT22;9099;47.958;11.366;2023-04-01T09:00:29;15.50;99.90
17948;DHT22;9099;47.958;11.366;2023-04-01T09:06:22;14.80;99.90
17948;DHT22;9099;47.958;11.366;2023-04-01T09:09:02;14.50;99.90
17948;DHT22;9099;47.958;11.366;2023-04-01T09:11:48;14.10;99.90
17948;DHT22;9099;47.958;11.366;2023-04-01T09:14:31;14.00;99.90
17948;DHT22;9099;47.958;11.366;2023-04-01T09:20:19;13.60;99.90
17948;DHT22;9099;47.958;11.366;2023-04-01T09:23:20;13.90;99.90
17948;DHT22;9099;47.958;11.366;2023-04-01T09:25:57;14.30;99.90
17948;DHT22;9099;47.958;11.366;2023-04-01T09:28:28;13.90;99.90
17948;DHT22;9099;47.958;11.366;2023-04-01T09:31:32;13.50;99.90
17948;DHT22;9099;47.958;11.366;2023-04-01T09:34:25;13.50;99.90
17948;DHT22;9099;47.958;11.366;2023-04-01T09:39:56;13.80;99.90
17948;DHT22;9099;47.958;11.366;2023-04-01T09:42:42;13.60;99.90
17948;DHT22;9099;47.958;11.366;2023-04-01T09:45:21;13.40;99.90
17948;DHT22;9099;47.958;11.366;2023-04-01T09:48:00;13.40;99.90
17948;DHT22;9099;47.958;11.366;2023-04-01T09:50:39;13.50;99.90
17948;DHT22;9099;47.958;11.366;2023-04-01T09:53:24;13.30;99.90
17948;DHT22;9099;47.958;11.366;2023-04-01T09:56:36;13.30;99.90
17948;DHT22;9099;47.958;11.366;2023-04-01T10:02:53;13.30;99.90
17948;DHT22;9099;47.958;11.366;2023-04-01T10:06:16;13.20;99.90
17948;DHT22;9099;47.958;11.366;2023-04-01T10:12:17;13.20;99.90
17948;DHT22;9099;47.958;11.366;2023-04-01T10:18:23;13.20;99.90
17948;DHT22;9099;47.958;11.366;2023-04-01T10:21:04;13.10;99.90
17948;DHT22;9099;47.958;11.366;2023-04-01T10:23:54;12.90;99.90
17948;DHT22;9099;47.958;11.366;2023-04-01T10:26:48;12.90;99.90
17948;DHT22;9099;47.958;11.366;2023-04-01T10:29:38;13.00;99.90
17948;DHT22;9099;47.958;11.366;2023-04-01T10:32:38;12.80;99.90
17948;DHT22;9099;47.958;11.366;2023-04-01T10:35:33;12.70;99.90
17948;DHT22;9099;47.958;11.366;2023-04-01T10:38:49;12.50;99.90
17948;DHT22;9099;47.958;11.366;2023-04-01T10:41:57;12.50;99.90
17948;DHT22;9099;47.958;11.366;2023-04-01T10:44:58;12.30;99.90
17948;DHT22;9099;47.958;11.366;2023-04-01T10:50:50;12.20;99.90
17948;DHT22;9099;47.958;11.366;2023-04-01T10:53:37;12.10;99.90
17948;DHT22;9099;47.958;11.366;2023-04-01T10:59:47;11.80;99.90
17948;DHT22;9099;47.958;11.366;2023-04-01T11:09:13;11.40;99.90
17948;DHT22;9099;47.958;11.366;2023-04-01T11:12:14;11.30;99.90
17948;DHT22;9099;47.958;11.366;2023-04-01T11:15:13;11.30;99.90
17948;DHT22;9099;47.958;11.366;2023-04-01T11:18:18;11.30;99.90
17948;DHT22;9099;47.958;11.366;2023-04-01T11:21:08;11.30;99.90
17948;DHT22;9099;47.958;11.366;2023-04-01T11:23:50;11.40;99.90
17948;DHT22;9099;47.958;11.366;2023-04-01T11:26:32;11.40;99.90
17948;DHT22;9099;47.958;11.366;2023-04-01T11:31:55;11.40;99.90
17948;DHT22;9099;47.958;11.366;2023-04-01T11:34:44;11.40;99.90
17948;DHT22;9099;47.958;11.366;2023-04-01T11:37:27;11.30;99.90
17948;DHT22;9099;47.958;11.366;2023-04-01T11:40:05;11.30;99.90
17948;DHT22;9099;47.958;11.366;2023-04-01T11:42:42;11.20;99.90
17948;DHT22;9099;47.958;11.366;2023-04-01T11:45:19;11.00;99.90
17948;DHT22;9099;47.958;11.366;2023-04-01T11:48:07;10.80;99.90
17948;DHT22;9099;47.958;11.366;2023-04-01T11:50:46;10.60;99.90
17948;DHT22;9099;47.958;11.366;2023-04-01T11:53:26;10.50;99.90
17948;DHT22;9099;47.958;11.366;2023-04-01T11:56:09;10.30;99.90
17948;DHT22;9099;47.958;11.366;2023-04-01T11:59:12;10.20;99.90
17948;DHT22;9099;47.958;11.366;2023-04-01T12:01:52;10.20;99.90
17948;DHT22;9099;47.958;11.366;2023-04-01T12:04:36;10.20;99.90
17948;DHT22;9099;47.958;11.366;2023-04-01T12:07:14;10.20;99.90
17948;DHT22;9099;47.958;11.366;2023-04-01T12:09:49;10.10;99.90
17948;DHT22;9099;47.958;11.366;2023-04-01T12:12:26;10.10;99.90
17948;DHT22;9099;47.958;11.366;2023-04-01T12:15:10;10.00;99.90
17948;DHT22;9099;47.958;11.366;2023-04-01T12:17:45;9.90;99.90
17948;DHT22;9099;47.958;11.366;2023-04-01T12:20:30;9.80;99.90
17948;DHT22;9099;47.958;11.366;2023-04-01T12:23:10;9.70;99.90
17948;DHT22;9099;47.958;11.366;2023-04-01T12:26:04;9.70;99.90
17948;DHT22;9099;47.958;11.366;2023-04-01T12:28:44;9.60;99.90
17948;DHT22;9099;47.958;11.366;2023-04-01T12:31:23;9.60;99.90
17948;DHT22;9099;47.958;11.366;2023-04-01T12:34:13;9.60;99.90
17948;DHT22;9099;47.958;11.366;2023-04-01T12:36:53;9.50;99.90
17948;DHT22;9099;47.958;11.366;2023-04-01T12:39:37;9.50;99.90
17948;DHT22;9099;47.958;11.366;2023-04-01T12:42:17;9.50;99.90
17948;DHT22;9099;47.958;11.366;2023-04-01T12:45:00;9.60;99.90
17948;DHT22;9099;47.958;11.366;2023-04-01T12:47:44;9.60;99.90
17948;DHT22;9099;47.958;11.366;2023-04-01T12:50:41;9.60;99.90
17948;DHT22;9099;47.958;11.366;2023-04-01T12:53:24;9.60;99.90
17948;DHT22;9099;47.958;11.366;2023-04-01T12:55:54;9.60;99.90
17948;DHT22;9099;47.958;11.366;2023-04-01T12:58:40;9.60;99.90
17948;DHT22;9099;47.958;11.366;2023-04-01T13:01:39;9.60;99.90
17948;DHT22;9099;47.958;11.366;2023-04-01T13:04:30;9.60;99.90
17948;DHT22;9099;47.958;11.366;2023-04-01T13:10:02;9.60;99.90
17948;DHT22;9099;47.958;11.366;2023-04-01T13:12:52;9.60;99.90
17948;DHT22;9099;47.958;11.366;2023-04-01T13:15:26;9.60;99.90
17948;DHT22;9099;47.958;11.366;2023-04-01T13:18:06;9.70;99.90
17948;DHT22;9099;47.958;11.366;2023-04-01T13:20:44;9.70;99.90
17948;DHT22;9099;47.958;11.366;2023-04-01T13:23:20;9.70;99.90
17948;DHT22;9099;47.958;11.366;2023-04-01T13:25:58;9.70;99.90
17948;DHT22;9099;47.958;11.366;2023-04-01T13:28:29;9.60;99.90
17948;DHT22;9099;47.958;11.366;2023-04-01T13:31:03;9.60;99.90
17948;DHT22;9099;47.958;11.366;2023-04-01T13:33:40;9.60;99.90
17948;DHT22;9099;47.958;11.366;2023-04-01T13:36:19;9.60;99.90
17948;DHT22;9099;47.958;11.366;2023-04-01T13:39:03;9.60;99.90
17948;DHT22;9099;47.958;11.366;2023-04-01T13:41:43;9.50;99.90
17948;DHT22;9099;47.958;11.366;2023-04-01T13:44:20;9.50;99.90
17948;DHT22;9099;47.958;11.366;2023-04-01T13:47:06;9.50;99.90
17948;DHT22;9099;47.958;11.366;2023-04-01T13:50:07;9.50;99.90
17948;DHT22;9099;47.958;11.366;2023-04-01T13:52:59;9.50;99.90
17948;DHT22;9099;47.958;11.366;2023-04-01T13:55:43;9.50;99.90
17948;DHT22;9099;47.958;11.366;2023-04-01T14:01:08;9.40;99.90
17948;DHT22;9099;47.958;11.366;2023-04-01T14:03:50;9.40;99.90
17948;DHT22;9099;47.958;11.366;2023-04-01T14:06:28;9.30;99.90
17948;DHT22;9099;47.958;11.366;2023-04-01T14:09:11;9.40;99.90
17948;DHT22;9099;47.958;11.366;2023-04-01T14:11:50;9.40;99.90
17948;DHT22;9099;47.958;11.366;2023-04-01T14:14:31;9.40;99.90
17948;DHT22;9099;47.958;11.366;2023-04-01T14:17:16;9.40;99.90
17948;DHT22;9099;47.958;11.366;2023-04-01T14:20:15;9.40;99.90
17948;DHT22;9099;47.958;11.366;2023-04-01T14:22:57;9.40;99.90
17948;DHT22;9099;47.958;11.366;2023-04-01T14:25:46;9.40;99.90
17948;DHT22;9099;47.958;11.366;2023-04-01T14:28:20;9.40;99.90
17948;DHT22;9099;47.958;11.366;2023-04-01T14:31:12;9.40;99.90
17948;DHT22;9099;47.958;11.366;2023-04-01T14:33:46;9.40;99.90
17948;DHT22;9099;47.958;11.366;2023-04-01T14:36:34;9.30;99.90
17948;DHT22;9099;47.958;11.366;2023-04-01T14:39:21;9.40;99.90
17948;DHT22;9099;47.958;11.366;2023-04-01T14:42:02;9.30;99.90
17948;DHT22;9099;47.958;11.366;2023-04-01T14:47:50;9.60;99.90
17948;DHT22;9099;47.958;11.366;2023-04-01T14:50:21;9.70;99.90
17948;DHT22;9099;47.958;11.366;2023-04-01T14:52:57;9.80;99.90
17948;DHT22;9099;47.958;11.366;2023-04-01T14:55:31;9.80;99.90
17948;DHT22;9099;47.958;11.366;2023-04-01T14:58:10;9.90;99.90
17948;DHT22;9099;47.958;11.366;2023-04-01T15:00:50;9.80;99.90
17948;DHT22;9099;47.958;11.366;2023-04-01T15:03:27;9.80;99.90
17948;DHT22;9099;47.958;11.366;2023-04-01T15:06:10;9.80;99.90
17948;DHT22;9099;47.958;11.366;2023-04-01T15:08:49;9.90;99.90
17948;DHT22;9099;47.958;11.366;2023-04-01T15:11:29;9.90;99.90
17948;DHT22;9099;47.958;11.366;2023-04-01T15:17:27;10.10;99.90
17948;DHT22;9099;47.958;11.366;2023-04-01T15:20:10;10.10;99.90
17948;DHT22;9099;47.958;11.366;2023-04-01T15:22:51;10.00;99.90
17948;DHT22;9099;47.958;11.366;2023-04-01T15:25:34;10.10;99.90
17948;DHT22;9099;47.958;11.366;2023-04-01T15:28:10;10.00;99.90
17948;DHT22;9099;47.958;11.366;2023-04-01T15:30:47;10.10;99.90
17948;DHT22;9099;47.958;11.366;2023-04-01T15:33:27;10.10;99.90
17948;DHT22;9099;47.958;11.366;2023-04-01T15:36:07;10.10;99.90
17948;DHT22;9099;47.958;11.366;2023-04-01T15:38:40;10.10;99.90
17948;DHT22;9099;47.958;11.366;2023-04-01T15:41:16;10.10;99.90
17948;DHT22;9099;47.958;11.366;2023-04-01T15:43:45;10.10;99.90
17948;DHT22;9099;47.958;11.366;2023-04-01T15:46:41;10.00;99.90
17948;DHT22;9099;47.958;11.366;2023-04-01T15:49:23;10.00;99.90
17948;DHT22;9099;47.958;11.366;2023-04-01T15:52:05;10.00;99.90
17948;DHT22;9099;47.958;11.366;2023-04-01T15:57:36;10.10;99.90
17948;DHT22;9099;47.958;11.366;2023-04-01T16:00:22;10.10;99.90
17948;DHT22;9099;47.958;11.366;2023-04-01T16:03:00;10.10;99.90
17948;DHT22;9099;47.958;11.366;2023-04-01T16:05:41;10.00;99.90
17948;DHT22;9099;47.958;11.366;2023-04-01T16:08:20;10.10;99.90
17948;DHT22;9099;47.958;11.366;2023-04-01T16:10:58;10.00;99.90
17948;DHT22;9099;47.958;11.366;2023-04-01T16:13:40;10.00;99.90
17948;DHT22;9099;47.958;11.366;2023-04-01T16:16:19;10.00;99.90
17948;DHT22;9099;47.958;11.366;2023-04-01T16:19:09;10.00;99.90
17948;DHT22;9099;47.958;11.366;2023-04-01T16:21:44;10.00;99.90
17948;DHT22;9099;47.958;11.366;2023-04-01T16:24:20;10.00;99.90
17948;DHT22;9099;47.958;11.366;2023-04-01T16:26:53;9.80;99.90
17948;DHT22;9099;47.958;11.366;2023-04-01T16:29:27;9.80;99.90
17948;DHT22;9099;47.958;11.366;2023-04-01T16:32:14;9.70;99.90
17948;DHT22;9099;47.958;11.366;2023-04-01T16:34:45;9.70;99.90
17948;DHT22;9099;47.958;11.366;2023-04-01T16:37:20;9.70;99.90
17948;DHT22;9099;47.958;11.366;2023-04-01T16:39:53;9.70;99.90
17948;DHT22;9099;47.958;11.366;2023-04-01T16:42:34;9.70;99.90
17948;DHT22;9099;47.958;11.366;2023-04-01T16:45:16;9.70;99.90
17948;DHT22;9099;47.958;11.366;2023-04-01T16:47:48;9.70;99.90
17948;DHT22;9099;47.958;11.366;2023-04-01T16:50:20;9.60;99.90
17948;DHT22;9099;47.958;11.366;2023-04-01T16:52:57;9.60;99.90
17948;DHT22;9099;47.958;11.366;2023-04-01T16:55:34;9.60;99.90
17948;DHT22;9099;47.958;11.366;2023-04-01T16:58:01;9.60;99.90
17948;DHT22;9099;47.958;11.366;2023-04-01T17:00:36;9.60;99.90
17948;DHT22;9099;47.958;11.366;2023-04-01T17:03:11;9.60;99.90
17948;DHT22;9099;47.958;11.366;2023-04-01T17:05:52;9.60;99.90
17948;DHT22;9099;47.958;11.366;2023-04-01T17:08:34;9.50;99.90
17948;DHT22;9099;47.958;11.366;2023-04-01T17:11:10;9.50;99.90
17948;DHT22;9099;47.958;11.366;2023-04-01T17:13:46;9.50;99.90
17948;DHT22;9099;47.958;11.366;2023-04-01T17:16:35;9.60;99.90
17948;DHT22;9099;47.958;11.366;2023-04-01T17:19:12;9.60;99.90
17948;DHT22;9099;47.958;11.366;2023-04-01T17:21:49;9.50;99.90
17948;DHT22;9099;47.958;11.366;2023-04-01T17:24:39;9.50;99.90
17948;DHT22;9099;47.958;11.366;2023-04-01T17:27:18;9.50;99.90
17948;DHT22;9099;47.958;11.366;2023-04-01T17:30:02;9.50;99.90
17948;DHT22;9099;47.958;11.366;2023-04-01T17:32:40;9.50;99.90
17948;DHT22;9099;47.958;11.366;2023-04-01T17:35:14;9.40;99.90
17948;DHT22;9099;47.958;11.366;2023-04-01T17:37:54;9.40;99.90
17948;DHT22;9099;47.958;11.366;2023-04-01T17:40:36;9.30;99.90